sensor_id;sensor_type;location;lat;lon;timestamp;temperature;humidity
59961;DHT22;55902;-37.980;-63.602;2023-04-03T00:01:40;20.80;81.00
59961;DHT22;55902;-37.980;-63.602;2023-04-03T00:04:07;20.60;83.70
59961;DHT22;55902;-37.980;-63.602;2023-04-03T00:06:34;20.50;82.10
59961;DHT22;55902;-37.980;-63.602;2023-04-03T00:09:01;20.40;82.40
59961;DHT22;55902;-37.980;-63.602;2023-04-03T00:11:28;20.30;82.40
59961;DHT22;55902;-37.980;-63.602;2023-04-03T00:13:55;20.30;81.20
59961;DHT22;55902;-37.980;-63.602;2023-04-03T00:16:22;20.30;82.20
59961;DHT22;55902;-37.980;-63.602;2023-04-03T00:18:49;20.20;83.50
59961;DHT22;55902;-37.980;-63.602;2023-04-03T00:21:16;20.10;83.80
59961;DHT22;55902;-37.980;-63.602;2023-04-03T00:23:43;20.00;85.10
59961;DHT22;55902;-37.980;-63.602;2023-04-03T00:26:10;19.90;82.90
59961;DHT22;55902;-37.980;-63.602;2023-04-03T00:28:37;19.90;83.60
59961;DHT22;55902;-37.980;-63.602;2023-04-03T00:31:04;19.80;83.70
59961;DHT22;55902;-37.980;-63.602;2023-04-03T00:33:31;19.70;87.10
59961;DHT22;55902;-37.980;-63.602;2023-04-03T00:35:58;19.60;83.90
59961;DHT22;55902;-37.980;-63.602;2023-04-03T00:38:25;19.60;83.00
59961;DHT22;55902;-37.980;-63.602;2023-04-03T00:40:52;19.60;83.00
59961;DHT22;55902;-37.980;-63.602;2023-04-03T00:43:24;19.50;80.30
59961;DHT22;55902;-37.980;-63.602;2023-04-03T00:45:54;19.60;82.50
59961;DHT22;55902;-37.980;-63.602;2023-04-03T00:48:42;19.50;81.60
59961;DHT22;55902;-37.980;-63.602;2023-04-03T00:51:31;19.50;84.30
59961;DHT22;55902;-37.980;-63.602;2023-04-03T00:54:02;19.40;83.50
59961;DHT22;55902;-37.980;-63.602;2023-04-03T00:56:31;19.40;88.20
59961;DHT22;55902;-37.980;-63.602;2023-04-03T00:59:12;19.30;86.10
59961;DHT22;55902;-37.980;-63.602;2023-04-03T01:01:42;19.30;86.70
59961;DHT22;55902;-37.980;-63.602;2023-04-03T01:04:44;19.30;86.10
59961;DHT22;55902;-37.980;-63.602;2023-04-03T01:07:20;19.40;87.00
59961;DHT22;55902;-37.980;-63.602;2023-04-03T01:09:50;19.50;84.70
59961;DHT22;55902;-37.980;-63.602;2023-04-03T01:14:51;19.60;84.20
59961;DHT22;55902;-37.980;-63.602;2023-04-03T01:17:38;19.50;84.30
59961;DHT22;55902;-37.980;-63.602;2023-04-03T01:33:35;19.40;85.00
59961;DHT22;55902;-37.980;-63.602;2023-04-03T01:36:02;19.40;83.60
59961;DHT22;55902;-37.980;-63.602;2023-04-03T01:38:32;19.30;83.60
59961;DHT22;55902;-37.980;-63.602;2023-04-03T01:40:59;19.30;85.80
59961;DHT22;55902;-37.980;-63.602;2023-04-03T01:43:26;19.30;83.20
59961;DHT22;55902;-37.980;-63.602;2023-04-03T01:45:53;19.30;82.80
59961;DHT22;55902;-37.980;-63.602;2023-04-03T01:48:21;19.20;83.40
59961;DHT22;55902;-37.980;-63.602;2023-04-03T01:50:48;19.20;82.90
59961;DHT22;55902;-37.980;-63.602;2023-04-03T01:53:15;19.20;81.70
59961;DHT22;55902;-37.980;-63.602;2023-04-03T01:55:42;19.10;83.30
59961;DHT22;55902;-37.980;-63.602;2023-04-03T01:58:09;19.10;83.90
59961;DHT22;55902;-37.980;-63.602;2023-04-03T02:00:36;19.00;86.00
59961;DHT22;55902;-37.980;-63.602;2023-04-03T02:03:03;18.90;85.90
59961;DHT22;55902;-37.980;-63.602;2023-04-03T02:05:30;18.80;88.50
59961;DHT22;55902;-37.980;-63.602;2023-04-03T02:07:57;18.80;86.60
59961;DHT22;55902;-37.980;-63.602;2023-04-03T02:10:24;18.70;90.00
59961;DHT22;55902;-37.980;-63.602;2023-04-03T02:12:51;18.60;88.20
59961;DHT22;55902;-37.980;-63.602;2023-04-03T02:15:18;18.60;88.70
59961;DHT22;55902;-37.980;-63.602;2023-04-03T02:17:45;18.60;88.00
59961;DHT22;55902;-37.980;-63.602;2023-04-03T02:23:34;18.50;89.30
59961;DHT22;55902;-37.980;-63.602;2023-04-03T02:26:10;18.40;88.80
59961;DHT22;55902;-37.980;-63.602;2023-04-03T02:28:38;18.50;87.40
59961;DHT22;55902;-37.980;-63.602;2023-04-03T02:31:06;18.40;90.90
59961;DHT22;55902;-37.980;-63.602;2023-04-03T02:33:35;18.40;91.40
59961;DHT22;55902;-37.980;-63.602;2023-04-03T02:36:05;18.40;91.00
59961;DHT22;55902;-37.980;-63.602;2023-04-03T02:38:33;18.30;91.70
59961;DHT22;55902;-37.980;-63.602;2023-04-03T02:41:04;18.20;91.60
59961;DHT22;55902;-37.980;-63.602;2023-04-03T02:43:38;18.20;91.80
59961;DHT22;55902;-37.980;-63.602;2023-04-03T02:46:14;18.20;92.30
59961;DHT22;55902;-37.980;-63.602;2023-04-03T02:48:41;18.10;93.20
59961;DHT22;55902;-37.980;-63.602;2023-04-03T02:51:29;18.10;92.90
59961;DHT22;55902;-37.980;-63.602;2023-04-03T02:53:57;18.10;92.60
59961;DHT22;55902;-37.980;-63.602;2023-04-03T02:56:24;18.10;93.60
59961;DHT22;55902;-37.980;-63.602;2023-04-03T02:58:50;18.10;93.50
59961;DHT22;55902;-37.980;-63.602;2023-04-03T03:01:18;18.10;93.80
59961;DHT22;55902;-37.980;-63.602;2023-04-03T03:03:45;18.10;94.10
59961;DHT22;55902;-37.980;-63.602;2023-04-03T03:06:14;18.10;94.30
59961;DHT22;55902;-37.980;-63.602;2023-04-03T03:08:42;18.10;94.40
59961;DHT22;55902;-37.980;-63.602;2023-04-03T03:11:10;18.10;94.60
59961;DHT22;55902;-37.980;-63.602;2023-04-03T03:13:37;18.10;94.60
59961;DHT22;55902;-37.980;-63.602;2023-04-03T03:16:05;18.10;95.00
59961;DHT22;55902;-37.980;-63.602;2023-04-03T03:18:32;18.10;94.60
59961;DHT22;55902;-37.980;-63.602;2023-04-03T03:21:01;18.10;94.40
59961;DHT22;55902;-37.980;-63.602;2023-04-03T03:23:30;18.10;94.50
59961;DHT22;55902;-37.980;-63.602;2023-04-03T03:26:01;18.10;94.60
59961;DHT22;55902;-37.980;-63.602;2023-04-03T03:28:28;18.10;95.00
59961;DHT22;55902;-37.980;-63.602;2023-04-03T03:30:55;18.00;95.80
59961;DHT22;55902;-37.980;-63.602;2023-04-03T03:33:22;18.00;95.30
59961;DHT22;55902;-37.980;-63.602;2023-04-03T03:35:49;17.90;94.50
59961;DHT22;55902;-37.980;-63.602;2023-04-03T03:38:16;17.90;94.80
59961;DHT22;55902;-37.980;-63.602;2023-04-03T03:50:50;17.70;93.70
59961;DHT22;55902;-37.980;-63.602;2023-04-03T03:53:17;17.60;94.20
59961;DHT22;55902;-37.980;-63.602;2023-04-03T03:55:45;17.50;95.60
59961;DHT22;55902;-37.980;-63.602;2023-04-03T03:58:12;17.50;95.80
59961;DHT22;55902;-37.980;-63.602;2023-04-03T04:00:39;17.50;95.10
59961;DHT22;55902;-37.980;-63.602;2023-04-03T04:03:06;17.40;94.80
59961;DHT22;55902;-37.980;-63.602;2023-04-03T04:05:33;17.40;96.50
59961;DHT22;55902;-37.980;-63.602;2023-04-03T04:08:00;17.40;96.40
59961;DHT22;55902;-37.980;-63.602;2023-04-03T04:10:26;17.40;96.30
59961;DHT22;55902;-37.980;-63.602;2023-04-03T04:12:53;17.30;97.90
59961;DHT22;55902;-37.980;-63.602;2023-04-03T04:15:20;17.30;96.80
59961;DHT22;55902;-37.980;-63.602;2023-04-03T04:17:48;17.20;95.60
59961;DHT22;55902;-37.980;-63.602;2023-04-03T04:20:15;17.20;95.70
59961;DHT22;55902;-37.980;-63.602;2023-04-03T04:22:45;17.20;95.80
59961;DHT22;55902;-37.980;-63.602;2023-04-03T04:25:12;17.20;95.20
59961;DHT22;55902;-37.980;-63.602;2023-04-03T04:27:39;17.20;97.50
59961;DHT22;55902;-37.980;-63.602;2023-04-03T04:30:06;17.20;96.40
59961;DHT22;55902;-37.980;-63.602;2023-04-03T04:32:34;17.20;97.20
59961;DHT22;55902;-37.980;-63.602;2023-04-03T04:35:00;17.10;96.40
59961;DHT22;55902;-37.980;-63.602;2023-04-03T04:37:27;17.00;96.10
59961;DHT22;55902;-37.980;-63.602;2023-04-03T04:39:54;17.00;96.50
59961;DHT22;55902;-37.980;-63.602;2023-04-03T04:42:21;16.90;96.40
59961;DHT22;55902;-37.980;-63.602;2023-04-03T04:44:48;16.90;96.60
59961;DHT22;55902;-37.980;-63.602;2023-04-03T04:47:15;16.90;98.70
59961;DHT22;55902;-37.980;-63.602;2023-04-03T04:49:42;16.70;99.20
59961;DHT22;55902;-37.980;-63.602;2023-04-03T04:52:09;16.70;97.70
59961;DHT22;55902;-37.980;-63.602;2023-04-03T04:54:36;16.60;97.00
59961;DHT22;55902;-37.980;-63.602;2023-04-03T04:57:03;16.60;96.70
59961;DHT22;55902;-37.980;-63.602;2023-04-03T04:59:30;16.60;96.50
59961;DHT22;55902;-37.980;-63.602;2023-04-03T05:05:19;16.50;96.80
59961;DHT22;55902;-37.980;-63.602;2023-04-03T05:07:46;16.50;98.10
59961;DHT22;55902;-37.980;-63.602;2023-04-03T05:10:13;16.50;98.00
59961;DHT22;55902;-37.980;-63.602;2023-04-03T05:12:40;16.40;97.60
59961;DHT22;55902;-37.980;-63.602;2023-04-03T05:15:07;16.40;98.00
59961;DHT22;55902;-37.980;-63.602;2023-04-03T05:18:00;16.30;97.50
59961;DHT22;55902;-37.980;-63.602;2023-04-03T05:20:27;16.30;97.00
59961;DHT22;55902;-37.980;-63.602;2023-04-03T05:22:54;16.30;97.60
59961;DHT22;55902;-37.980;-63.602;2023-04-03T05:25:24;16.30;98.60
59961;DHT22;55902;-37.980;-63.602;2023-04-03T05:27:51;16.30;99.40
59961;DHT22;55902;-37.980;-63.602;2023-04-03T05:30:18;16.20;98.90
59961;DHT22;55902;-37.980;-63.602;2023-04-03T05:32:45;16.20;98.50
59961;DHT22;55902;-37.980;-63.602;2023-04-03T05:35:12;16.20;98.50
59961;DHT22;55902;-37.980;-63.602;2023-04-03T05:37:40;16.20;98.50
59961;DHT22;55902;-37.980;-63.602;2023-04-03T05:40:07;16.30;99.00
59961;DHT22;55902;-37.980;-63.602;2023-04-03T05:42:38;16.30;99.30
59961;DHT22;55902;-37.980;-63.602;2023-04-03T05:45:05;16.40;99.10
59961;DHT22;55902;-37.980;-63.602;2023-04-03T05:47:32;16.60;99.90
59961;DHT22;55902;-37.980;-63.602;2023-04-03T05:49:59;16.60;99.90
59961;DHT22;55902;-37.980;-63.602;2023-04-03T05:52:27;16.60;99.90
59961;DHT22;55902;-37.980;-63.602;2023-04-03T05:54:54;16.70;99.90
59961;DHT22;55902;-37.980;-63.602;2023-04-03T06:07:27;16.80;99.90
59961;DHT22;55902;-37.980;-63.602;2023-04-03T06:09:55;16.70;99.90
59961;DHT22;55902;-37.980;-63.602;2023-04-03T06:12:23;16.70;99.90
59961;DHT22;55902;-37.980;-63.602;2023-04-03T06:14:50;16.60;99.90
59961;DHT22;55902;-37.980;-63.602;2023-04-03T06:17:17;16.60;99.90
59961;DHT22;55902;-37.980;-63.602;2023-04-03T06:19:45;16.50;99.90
59961;DHT22;55902;-37.980;-63.602;2023-04-03T06:22:12;16.50;99.90
59961;DHT22;55902;-37.980;-63.602;2023-04-03T06:24:39;16.40;99.90
59961;DHT22;55902;-37.980;-63.602;2023-04-03T06:27:06;16.40;99.90
59961;DHT22;55902;-37.980;-63.602;2023-04-03T06:29:33;16.40;99.90
59961;DHT22;55902;-37.980;-63.602;2023-04-03T06:32:01;16.30;99.90
59961;DHT22;55902;-37.980;-63.602;2023-04-03T06:34:28;16.30;99.90
59961;DHT22;55902;-37.980;-63.602;2023-04-03T06:36:55;16.20;99.90
59961;DHT22;55902;-37.980;-63.602;2023-04-03T06:39:22;16.10;99.90
59961;DHT22;55902;-37.980;-63.602;2023-04-03T06:41:50;16.10;99.90
59961;DHT22;55902;-37.980;-63.602;2023-04-03T06:44:17;16.10;99.90
59961;DHT22;55902;-37.980;-63.602;2023-04-03T06:46:44;16.10;99.90
59961;DHT22;55902;-37.980;-63.602;2023-04-03T06:49:13;16.00;99.90
59961;DHT22;55902;-37.980;-63.602;2023-04-03T06:51:41;16.00;99.90
59961;DHT22;55902;-37.980;-63.602;2023-04-03T06:54:08;15.90;99.90
59961;DHT22;55902;-37.980;-63.602;2023-04-03T06:56:35;15.90;99.90
59961;DHT22;55902;-37.980;-63.602;2023-04-03T06:59:03;15.80;99.90
59961;DHT22;55902;-37.980;-63.602;2023-04-03T07:01:30;15.70;99.90
59961;DHT22;55902;-37.980;-63.602;2023-04-03T07:03:57;15.70;99.90
59961;DHT22;55902;-37.980;-63.602;2023-04-03T07:06:24;15.70;99.90
59961;DHT22;55902;-37.980;-63.602;2023-04-03T07:08:55;15.60;99.90
59961;DHT22;55902;-37.980;-63.602;2023-04-03T07:11:22;15.60;99.90
59961;DHT22;55902;-37.980;-63.602;2023-04-03T07:13:49;15.60;99.90
59961;DHT22;55902;-37.980;-63.602;2023-04-03T07:16:16;15.60;99.90
59961;DHT22;55902;-37.980;-63.602;2023-04-03T07:18:43;15.50;99.90
59961;DHT22;55902;-37.980;-63.602;2023-04-03T07:21:11;15.50;99.90
59961;DHT22;55902;-37.980;-63.602;2023-04-03T07:23:38;15.50;99.90
59961;DHT22;55902;-37.980;-63.602;2023-04-03T07:26:06;15.50;99.90
59961;DHT22;55902;-37.980;-63.602;2023-04-03T07:28:34;15.40;99.90
59961;DHT22;55902;-37.980;-63.602;2023-04-03T07:31:05;15.50;99.90
59961;DHT22;55902;-37.980;-63.602;2023-04-03T07:33:35;15.50;99.90
59961;DHT22;55902;-37.980;-63.602;2023-04-03T07:36:02;15.40;99.90
59961;DHT22;55902;-37.980;-63.602;2023-04-03T07:38:30;15.50;99.90
59961;DHT22;55902;-37.980;-63.602;2023-04-03T07:40:57;15.50;99.90
59961;DHT22;55902;-37.980;-63.602;2023-04-03T07:43:24;15.60;99.90
59961;DHT22;55902;-37.980;-63.602;2023-04-03T07:45:51;15.60;99.90
59961;DHT22;55902;-37.980;-63.602;2023-04-03T07:48:24;15.60;99.90
59961;DHT22;55902;-37.980;-63.602;2023-04-03T07:50:52;15.60;99.90
59961;DHT22;55902;-37.980;-63.602;2023-04-03T07:53:19;15.60;99.90
59961;DHT22;55902;-37.980;-63.602;2023-04-03T07:55:47;15.70;99.90
59961;DHT22;55902;-37.980;-63.602;2023-04-03T07:58:17;15.80;99.90
59961;DHT22;55902;-37.980;-63.602;2023-04-03T08:00:44;15.80;99.90
59961;DHT22;55902;-37.980;-63.602;2023-04-03T08:03:12;15.80;99.90
59961;DHT22;55902;-37.980;-63.602;2023-04-03T08:05:41;15.80;99.90
59961;DHT22;55902;-37.980;-63.602;2023-04-03T08:08:13;15.90;99.90
59961;DHT22;55902;-37.980;-63.602;2023-04-03T08:10:40;15.90;99.90
59961;DHT22;55902;-37.980;-63.602;2023-04-03T08:13:07;15.90;99.90
59961;DHT22;55902;-37.980;-63.602;2023-04-03T08:15:34;15.90;99.90
59961;DHT22;55902;-37.980;-63.602;2023-04-03T08:18:02;15.90;99.90
59961;DHT22;55902;-37.980;-63.602;2023-04-03T08:20:29;15.90;99.90
59961;DHT22;55902;-37.980;-63.602;2023-04-03T08:22:56;15.80;99.90
59961;DHT22;55902;-37.980;-63.602;2023-04-03T08:25:24;15.80;99.90
59961;DHT22;55902;-37.980;-63.602;2023-04-03T08:27:51;15.80;99.90
59961;DHT22;55902;-37.980;-63.602;2023-04-03T08:30:18;15.80;99.90
59961;DHT22;55902;-37.980;-63.602;2023-04-03T08:32:45;15.80;99.90
59961;DHT22;55902;-37.980;-63.602;2023-04-03T08:35:12;15.70;99.90
59961;DHT22;55902;-37.980;-63.602;2023-04-03T08:37:40;15.70;99.90
59961;DHT22;55902;-37.980;-63.602;2023-04-03T08:40:11;15.70;99.90
59961;DHT22;55902;-37.980;-63.602;2023-04-03T08:45:29;15.70;99.90
59961;DHT22;55902;-37.980;-63.602;2023-04-03T08:48:05;15.80;99.90
59961;DHT22;55902;-37.980;-63.602;2023-04-03T08:50:46;15.70;99.90
59961;DHT22;55902;-37.980;-63.602;2023-04-03T08:53:25;15.70;99.90
59961;DHT22;55902;-37.980;-63.602;2023-04-03T08:55:54;15.70;99.90
59961;DHT22;55902;-37.980;-63.602;2023-04-03T08:58:28;15.80;99.90
59961;DHT22;55902;-37.980;-63.602;2023-04-03T09:01:35;15.80;99.90
59961;DHT22;55902;-37.980;-63.602;2023-04-03T09:04:13;15.80;99.90
59961;DHT22;55902;-37.980;-63.602;2023-04-03T09:06:44;15.80;99.90
59961;DHT22;55902;-37.980;-63.602;2023-04-03T09:12:32;15.70;99.90
59961;DHT22;55902;-37.980;-63.602;2023-04-03T09:15:19;15.60;99.90
59961;DHT22;55902;-37.980;-63.602;2023-04-03T09:23:29;15.50;99.90
59961;DHT22;55902;-37.980;-63.602;2023-04-03T09:26:08;15.40;99.90
59961;DHT22;55902;-37.980;-63.602;2023-04-03T09:28:39;15.40;99.90
59961;DHT22;55902;-37.980;-63.602;2023-04-03T09:31:46;15.30;99.90
59961;DHT22;55902;-37.980;-63.602;2023-04-03T09:34:36;15.30;99.90
59961;DHT22;55902;-37.980;-63.602;2023-04-03T09:37:04;15.20;99.90
59961;DHT22;55902;-37.980;-63.602;2023-04-03T09:39:53;15.20;99.90
59961;DHT22;55902;-37.980;-63.602;2023-04-03T09:42:23;15.20;99.90
59961;DHT22;55902;-37.980;-63.602;2023-04-03T09:52:46;15.20;99.90
59961;DHT22;55902;-37.980;-63.602;2023-04-03T09:55:22;15.20;99.90
59961;DHT22;55902;-37.980;-63.602;2023-04-03T09:58:04;15.30;99.90
59961;DHT22;55902;-37.980;-63.602;2023-04-03T10:00:36;15.20;99.90
59961;DHT22;55902;-37.980;-63.602;2023-04-03T10:03:05;15.30;99.90
59961;DHT22;55902;-37.980;-63.602;2023-04-03T10:05:38;15.30;99.90
59961;DHT22;55902;-37.980;-63.602;2023-04-03T10:10:45;15.40;99.90
59961;DHT22;55902;-37.980;-63.602;2023-04-03T10:13:20;15.50;99.90
59961;DHT22;55902;-37.980;-63.602;2023-04-03T10:16:06;15.50;99.90
59961;DHT22;55902;-37.980;-63.602;2023-04-03T10:22:44;15.50;99.90
59961;DHT22;55902;-37.980;-63.602;2023-04-03T10:46:57;15.00;99.90
59961;DHT22;55902;-37.980;-63.602;2023-04-03T10:53:04;15.00;99.90
59961;DHT22;55902;-37.980;-63.602;2023-04-03T10:55:48;15.00;99.90
59961;DHT22;55902;-37.980;-63.602;2023-04-03T10:58:29;15.00;99.90
59961;DHT22;55902;-37.980;-63.602;2023-04-03T11:01:08;14.90;99.90
59961;DHT22;55902;-37.980;-63.602;2023-04-03T11:03:50;14.90;99.90
59961;DHT22;55902;-37.980;-63.602;2023-04-03T11:06:21;14.90;99.90
59961;DHT22;55902;-37.980;-63.602;2023-04-03T11:09:05;14.90;99.90
59961;DHT22;55902;-37.980;-63.602;2023-04-03T11:11:37;14.90;99.90
59961;DHT22;55902;-37.980;-63.602;2023-04-03T11:14:34;14.90;99.90
59961;DHT22;55902;-37.980;-63.602;2023-04-03T11:20:14;14.80;99.90
59961;DHT22;55902;-37.980;-63.602;2023-04-03T11:25:35;14.90;99.90
59961;DHT22;55902;-37.980;-63.602;2023-04-03T11:28:12;15.00;99.90
59961;DHT22;55902;-37.980;-63.602;2023-04-03T11:38:36;16.70;99.90
59961;DHT22;55902;-37.980;-63.602;2023-04-03T11:41:15;17.10;99.90
59961;DHT22;55902;-37.980;-63.602;2023-04-03T11:43:59;17.60;99.90
59961;DHT22;55902;-37.980;-63.602;2023-04-03T11:46:57;18.20;99.90
59961;DHT22;55902;-37.980;-63.602;2023-04-03T12:09:04;22.10;99.90
59961;DHT22;55902;-37.980;-63.602;2023-04-03T12:11:49;21.90;99.90
59961;DHT22;55902;-37.980;-63.602;2023-04-03T12:14:17;21.70;99.90
59961;DHT22;55902;-37.980;-63.602;2023-04-03T12:16:46;21.70;99.90
59961;DHT22;55902;-37.980;-63.602;2023-04-03T12:19:43;21.80;99.90
59961;DHT22;55902;-37.980;-63.602;2023-04-03T12:22:22;22.20;99.90
59961;DHT22;55902;-37.980;-63.602;2023-04-03T12:24:52;22.60;99.90
59961;DHT22;55902;-37.980;-63.602;2023-04-03T12:43:28;21.80;99.60
59961;DHT22;55902;-37.980;-63.602;2023-04-03T12:46:04;21.80;99.50
59961;DHT22;55902;-37.980;-63.602;2023-04-03T12:48:54;21.80;99.60
59961;DHT22;55902;-37.980;-63.602;2023-04-03T12:54:02;21.50;99.90
59961;DHT22;55902;-37.980;-63.602;2023-04-03T12:56:32;21.30;99.90
59961;DHT22;55902;-37.980;-63.602;2023-04-03T12:59:25;21.10;99.90
59961;DHT22;55902;-37.980;-63.602;2023-04-03T13:01:59;20.90;99.90
59961;DHT22;55902;-37.980;-63.602;2023-04-03T13:04:27;20.60;99.90
59961;DHT22;55902;-37.980;-63.602;2023-04-03T13:06:55;20.40;99.90
59961;DHT22;55902;-37.980;-63.602;2023-04-03T13:09:28;20.10;99.90
59961;DHT22;55902;-37.980;-63.602;2023-04-03T13:12:13;19.90;99.90
59961;DHT22;55902;-37.980;-63.602;2023-04-03T13:14:51;19.70;99.90
59961;DHT22;55902;-37.980;-63.602;2023-04-03T13:17:19;19.60;99.90
59961;DHT22;55902;-37.980;-63.602;2023-04-03T13:19:48;19.40;99.90
59961;DHT22;55902;-37.980;-63.602;2023-04-03T13:22:59;19.30;99.90
59961;DHT22;55902;-37.980;-63.602;2023-04-03T13:25:39;19.20;99.90
59961;DHT22;55902;-37.980;-63.602;2023-04-03T13:28:13;19.20;99.90
59961;DHT22;55902;-37.980;-63.602;2023-04-03T13:30:55;19.10;99.90
59961;DHT22;55902;-37.980;-63.602;2023-04-03T13:33:26;19.00;99.90
59961;DHT22;55902;-37.980;-63.602;2023-04-03T13:36:03;19.00;99.90
59961;DHT22;55902;-37.980;-63.602;2023-04-03T13:38:31;19.00;99.90
59961;DHT22;55902;-37.980;-63.602;2023-04-03T13:41:37;19.00;99.90
59961;DHT22;55902;-37.980;-63.602;2023-04-03T13:46:45;18.90;99.90
59961;DHT22;55902;-37.980;-63.602;2023-04-03T13:49:36;19.00;99.90
59961;DHT22;55902;-37.980;-63.602;2023-04-03T13:55:26;19.00;99.90
59961;DHT22;55902;-37.980;-63.602;2023-04-03T14:00:49;19.00;99.90
59961;DHT22;55902;-37.980;-63.602;2023-04-03T14:03:31;19.00;99.90
59961;DHT22;55902;-37.980;-63.602;2023-04-03T14:06:01;18.90;99.90
59961;DHT22;55902;-37.980;-63.602;2023-04-03T14:08:48;18.90;99.90
59961;DHT22;55902;-37.980;-63.602;2023-04-03T14:11:26;18.90;99.90
59961;DHT22;55902;-37.980;-63.602;2023-04-03T14:14:02;18.90;99.90
59961;DHT22;55902;-37.980;-63.602;2023-04-03T14:16:33;18.90;99.90
59961;DHT22;55902;-37.980;-63.602;2023-04-03T14:19:05;18.90;99.90
59961;DHT22;55902;-37.980;-63.602;2023-04-03T14:21:34;19.00;99.90
59961;DHT22;55902;-37.980;-63.602;2023-04-03T14:24:27;19.00;99.90
59961;DHT22;55902;-37.980;-63.602;2023-04-03T14:26:56;19.00;99.90
59961;DHT22;55902;-37.980;-63.602;2023-04-03T14:29:55;19.10;99.90
59961;DHT22;55902;-37.980;-63.602;2023-04-03T14:35:07;19.40;99.90
59961;DHT22;55902;-37.980;-63.602;2023-04-03T14:37:44;19.50;99.90
59961;DHT22;55902;-37.980;-63.602;2023-04-03T14:40:22;19.60;99.90
59961;DHT22;55902;-37.980;-63.602;2023-04-03T14:42:51;19.60;99.90
59961;DHT22;55902;-37.980;-63.602;2023-04-03T14:45:22;19.80;99.90
59961;DHT22;55902;-37.980;-63.602;2023-04-03T14:48:15;19.80;99.90
59961;DHT22;55902;-37.980;-63.602;2023-04-03T14:50:44;20.00;99.90
59961;DHT22;55902;-37.980;-63.602;2023-04-03T14:53:14;20.00;99.90
59961;DHT22;55902;-37.980;-63.602;2023-04-03T14:55:46;20.10;99.90
59961;DHT22;55902;-37.980;-63.602;2023-04-03T14:58:20;20.20;99.90
59961;DHT22;55902;-37.980;-63.602;2023-04-03T15:00:54;20.30;99.90
59961;DHT22;55902;-37.980;-63.602;2023-04-03T15:03:27;20.60;99.90
59961;DHT22;55902;-37.980;-63.602;2023-04-03T15:05:58;21.00;99.90
59961;DHT22;55902;-37.980;-63.602;2023-04-03T15:08:38;21.60;99.90
59961;DHT22;55902;-37.980;-63.602;2023-04-03T15:11:08;22.10;99.90
59961;DHT22;55902;-37.980;-63.602;2023-04-03T15:13:37;22.50;99.90
59961;DHT22;55902;-37.980;-63.602;2023-04-03T15:16:05;23.30;99.90
59961;DHT22;55902;-37.980;-63.602;2023-04-03T15:18:39;24.50;99.90
59961;DHT22;55902;-37.980;-63.602;2023-04-03T15:21:06;25.50;97.60
59961;DHT22;55902;-37.980;-63.602;2023-04-03T15:23:34;25.70;96.50
59961;DHT22;55902;-37.980;-63.602;2023-04-03T15:26:02;25.70;96.20
59961;DHT22;55902;-37.980;-63.602;2023-04-03T15:28:33;26.00;96.30
59961;DHT22;55902;-37.980;-63.602;2023-04-03T15:31:02;26.50;95.90
59961;DHT22;55902;-37.980;-63.602;2023-04-03T15:33:30;26.60;95.30
59961;DHT22;55902;-37.980;-63.602;2023-04-03T15:35:57;26.70;95.30
59961;DHT22;55902;-37.980;-63.602;2023-04-03T15:38:24;26.90;94.30
59961;DHT22;55902;-37.980;-63.602;2023-04-03T15:40:52;27.40;95.40
59961;DHT22;55902;-37.980;-63.602;2023-04-03T15:43:20;28.00;94.30
59961;DHT22;55902;-37.980;-63.602;2023-04-03T15:45:48;28.60;93.70
59961;DHT22;55902;-37.980;-63.602;2023-04-03T15:48:16;29.00;91.40
59961;DHT22;55902;-37.980;-63.602;2023-04-03T15:50:44;28.90;91.40
59961;DHT22;55902;-37.980;-63.602;2023-04-03T15:53:11;29.30;91.20
59961;DHT22;55902;-37.980;-63.602;2023-04-03T15:55:44;29.80;91.60
59961;DHT22;55902;-37.980;-63.602;2023-04-03T15:58:13;30.10;88.00
59961;DHT22;55902;-37.980;-63.602;2023-04-03T16:00:42;30.60;89.40
59961;DHT22;55902;-37.980;-63.602;2023-04-03T16:03:12;31.10;88.30
59961;DHT22;55902;-37.980;-63.602;2023-04-03T16:05:41;31.30;85.00
59961;DHT22;55902;-37.980;-63.602;2023-04-03T16:08:12;31.50;83.70
59961;DHT22;55902;-37.980;-63.602;2023-04-03T16:10:44;31.60;83.70
59961;DHT22;55902;-37.980;-63.602;2023-04-03T16:13:13;31.70;84.50
59961;DHT22;55902;-37.980;-63.602;2023-04-03T16:15:41;31.90;83.60
59961;DHT22;55902;-37.980;-63.602;2023-04-03T16:18:12;32.10;83.00
59961;DHT22;55902;-37.980;-63.602;2023-04-03T16:20:40;32.30;80.10
59961;DHT22;55902;-37.980;-63.602;2023-04-03T16:23:07;32.50;78.30
59961;DHT22;55902;-37.980;-63.602;2023-04-03T16:25:37;32.80;79.60
59961;DHT22;55902;-37.980;-63.602;2023-04-03T16:28:04;33.00;77.60
59961;DHT22;55902;-37.980;-63.602;2023-04-03T16:30:33;33.20;77.70
59961;DHT22;55902;-37.980;-63.602;2023-04-03T16:33:00;33.20;76.40
59961;DHT22;55902;-37.980;-63.602;2023-04-03T16:35:27;33.30;77.90
59961;DHT22;55902;-37.980;-63.602;2023-04-03T16:37:54;33.40;75.60
59961;DHT22;55902;-37.980;-63.602;2023-04-03T16:40:21;33.60;73.00
59961;DHT22;55902;-37.980;-63.602;2023-04-03T16:42:52;33.70;73.30
59961;DHT22;55902;-37.980;-63.602;2023-04-03T16:45:19;33.70;71.70
59961;DHT22;55902;-37.980;-63.602;2023-04-03T16:47:45;33.60;72.60
59961;DHT22;55902;-37.980;-63.602;2023-04-03T16:50:15;33.60;72.40
59961;DHT22;55902;-37.980;-63.602;2023-04-03T16:52:42;33.60;71.00
59961;DHT22;55902;-37.980;-63.602;2023-04-03T16:55:11;33.70;72.40
59961;DHT22;55902;-37.980;-63.602;2023-04-03T16:57:38;34.00;69.90
59961;DHT22;55902;-37.980;-63.602;2023-04-03T17:00:06;34.10;68.60
59961;DHT22;55902;-37.980;-63.602;2023-04-03T17:02:33;34.20;68.60
59961;DHT22;55902;-37.980;-63.602;2023-04-03T17:05:00;34.00;67.40
59961;DHT22;55902;-37.980;-63.602;2023-04-03T17:07:27;33.90;65.70
59961;DHT22;55902;-37.980;-63.602;2023-04-03T17:09:54;33.80;66.40
59961;DHT22;55902;-37.980;-63.602;2023-04-03T17:12:22;34.00;65.10
59961;DHT22;55902;-37.980;-63.602;2023-04-03T17:14:53;34.30;66.10
59961;DHT22;55902;-37.980;-63.602;2023-04-03T17:17:22;34.50;63.10
59961;DHT22;55902;-37.980;-63.602;2023-04-03T17:19:53;34.70;65.90
59961;DHT22;55902;-37.980;-63.602;2023-04-03T17:22:20;34.80;64.70
59961;DHT22;55902;-37.980;-63.602;2023-04-03T17:24:47;35.00;63.20
59961;DHT22;55902;-37.980;-63.602;2023-04-03T17:27:14;35.20;65.40
59961;DHT22;55902;-37.980;-63.602;2023-04-03T17:29:41;35.50;65.60
59961;DHT22;55902;-37.980;-63.602;2023-04-03T17:32:11;35.60;62.20
59961;DHT22;55902;-37.980;-63.602;2023-04-03T17:34:38;36.00;64.00
59961;DHT22;55902;-37.980;-63.602;2023-04-03T17:37:05;36.30;59.80
59961;DHT22;55902;-37.980;-63.602;2023-04-03T17:39:32;36.30;62.20
59961;DHT22;55902;-37.980;-63.602;2023-04-03T17:41:59;36.40;59.40
59961;DHT22;55902;-37.980;-63.602;2023-04-03T17:44:26;36.30;62.00
59961;DHT22;55902;-37.980;-63.602;2023-04-03T17:46:53;36.40;59.80
59961;DHT22;55902;-37.980;-63.602;2023-04-03T17:49:20;36.30;57.30